Latest Coastal Weather Observations for Centre Island

IDD60701

Issued at 1:05 am CST Friday 1 August 2014 (issued every 10 minutes, with the page automatically refreshed every 10 minutes)

About coastal observations | Map of coastal stations | Coastal observations for NT | Marine services | Other Formats
Station Details ID: 014703 Name: CENTRE ISLAND Lat: -15.74 Lon: 136.82 Height: 12.2 m
Data from the previous 72 hours. | See also: Recent months at Centre Island
Date/Time
CST
Temp

°C
Wind Pressure Rain
since 9am
mm
Weather Cloud Vis
km
Sea
Height
m
Swell
Dir
 
Speed
knots
Gust
knots
hPa Trend Height
m
Period
s
Dir
01/01:00am 22.3 NE 5 7 1015.0 - 0.2 - - - - - - -
01/12:30am 22.3 NNE 5 7 1015.0 - 0.2 - - - - - - -
01/12:00am 22.4 NNE 6 7 1014.9 - 0.2 - - - - - - -
 
Date/Time
CST
Temp

°C
Wind Pressure Rain
since 9am
mm
Weather Cloud Vis
km
Sea
Height
m
Swell
Dir
 
Speed
knots
Gust
knots
hPa Trend Height
m
Period
s
Dir
31/11:30pm 22.3 NNE 5 7 1014.9 - 0.2 - - - - - - -
31/11:00pm 22.4 NNE 6 8 1015.0 - 0.2 - - - - - - -
31/10:30pm 22.5 NNE 6 8 1015.1 - 0.2 - - - - - - -
31/10:00pm 22.5 NE 7 9 1015.2 - 0.2 - - - - - - -
31/09:30pm 22.5 NE 8 10 1015.3 - 0.2 - - - - - - -
31/09:00pm 22.6 NNE 8 11 1015.3 - 0.2 - - - - - - -
31/08:30pm 22.6 NNE 8 11 1015.2 - 0.2 - - - - - - -
31/08:00pm 22.6 NNE 9 11 1014.9 - 0.2 - - - - - - -
31/07:30pm 22.5 NE 8 11 1014.6 - 0.2 - - - - - - -
31/07:00pm 22.9 NNE 9 11 1014.3 - 0.2 - - - - - - -
31/06:30pm 23.1 N 8 10 1014.0 - 0.2 - - - - - - -
31/06:00pm 23.5 NNE 8 11 1013.9 - 0.2 - - - - - - -
31/05:30pm 24.1 NNE 8 10 1013.8 - 0.2 - - - - - - -
31/05:00pm 24.9 NE 8 10 1013.8 - 0.2 - - - - - - -
31/04:30pm 25.2 NE 8 11 1013.9 - 0.2 - - - - - - -
31/04:00pm 25.6 NNE 9 12 1013.9 - 0.2 - - - - - - -
31/03:30pm 26.0 NE 10 13 1014.1 - 0.2 - - - - - - -
31/03:00pm 26.7 NE 10 13 1014.1 - 0.2 - - - - - - -
31/02:30pm 27.4 NE 9 12 1014.5 - 0.2 - - - - - - -
31/02:00pm 27.4 NE 8 10 1014.8 - 0.2 - - - - - - -
31/01:30pm 27.7 NE 7 8 1015.1 - 0.2 - - - - - - -
31/01:00pm 27.6 ENE 6 8 1015.4 - 0.2 - - - - - - -
31/12:30pm 26.9 ESE 5 7 1015.9 - 0.2 - - - - - - -
31/12:00pm 24.7 SE 5 6 1016.3 - 0.2 - - - - - - -
31/11:30am 24.3 SSE 4 5 1016.7 - 0.2 - - - - - - -
31/11:00am 24.0 SSE 4 5 1016.7 - 0.2 - - - - - - -
31/10:30am 23.1 SSE 3 4 1016.9 - 0.0 - - - - - - -
31/10:00am 22.1 NE 3 5 1016.9 - 0.0 - - - - - - -
31/09:30am 21.0 W 2 4 1017.0 - 0.0 - - - - - - -
31/09:00am 20.9 SW 3 4 1017.0 - 0.0 - - - - - - -
31/08:30am 20.9 SSE 3 4 1016.9 - 0.0 - - - - - - -
31/08:00am 20.5 SSE 4 6 1016.7 - 0.0 - - - - - - -
31/07:30am 20.2 SE 6 7 1016.7 - 0.0 - - - - - - -
31/07:00am 20.4 S 8 9 1016.2 - 0.0 - - - - - - -
31/06:30am 20.6 SSW 7 10 1015.7 - 0.0 - - - - - - -
31/06:00am 20.7 SW 7 9 1015.3 - 0.0 - - - - - - -
31/05:30am 21.0 SW 6 8 1015.0 - 0.0 - - - - - - -
31/05:00am 20.9 SSW 7 9 1014.8 - 0.0 - - - - - - -
31/04:30am 20.9 SSW 8 9 1014.7 - 0.0 - - - - - - -
31/04:00am 21.1 SSW 7 9 1014.9 - 0.0 - - - - - - -
31/03:30am 21.2 S 6 7 1015.0 - 0.0 - - - - - - -
31/03:00am 21.5 S 5 7 1015.2 - 0.0 - - - - - - -
31/02:30am 21.6 SSE 6 6 1015.5 - 0.0 - - - - - - -
31/02:00am 21.9 SSE 7 8 1015.9 - 0.0 - - - - - - -
31/01:30am 22.0 SSE 5 6 1015.9 - 0.0 - - - - - - -
31/01:00am 21.6 SSE 4 5 1016.0 - 0.0 - - - - - - -
31/12:30am 21.5 E 3 4 1016.1 - 0.0 - - - - - - -
31/12:00am 20.8 ENE 2 3 1015.9 - 0.0 - - - - - - -
 
Date/Time
CST
Temp

°C
Wind Pressure Rain
since 9am
mm
Weather Cloud Vis
km
Sea
Height
m
Swell
Dir
 
Speed
knots
Gust
knots
hPa Trend Height
m
Period
s
Dir
30/11:30pm 21.1 ENE 3 4 1015.8 - 0.0 - - - - - - -
30/11:00pm 21.0 ENE 3 4 1016.0 - 0.0 - - - - - - -
30/10:30pm 21.5 NE 3 4 1016.0 - 0.0 - - - - - - -
30/10:00pm 21.4 NE 2 4 1016.1 - 0.0 - - - - - - -
30/09:30pm 21.4 CALM 0 0 1016.1 - 0.0 - - - - - - -
30/09:00pm 22.1 NE 4 5 1016.0 - 0.0 - - - - - - -
30/08:30pm 22.1 ENE 5 6 1015.9 - 0.0 - - - - - - -
30/08:00pm 22.3 NE 5 6 1015.6 - 0.0 - - - - - - -
30/07:30pm 22.6 NNE 6 7 1015.1 - 0.0 - - - - - - -
30/07:00pm 22.8 NNE 7 9 1014.9 - 0.0 - - - - - - -
30/06:30pm 23.0 NNE 7 9 1014.8 - 0.0 - - - - - - -
30/06:00pm 23.6 NNE 7 9 1014.7 - 0.0 - - - - - - -
30/05:30pm 24.5 NNE 9 13 1014.6 - 0.0 - - - - - - -
30/05:00pm 25.3 NNE 11 15 1014.4 - 0.0 - - - - - - -
30/04:30pm 26.0 NNE 9 13 1014.2 - 0.0 - - - - - - -
30/04:00pm 26.2 NE 9 12 1014.0 - 0.0 - - - - - - -
30/03:30pm 26.9 NNE 11 14 1014.1 - 0.0 - - - - - - -
30/03:00pm 26.7 NNE 11 15 1014.2 - 0.0 - - - - - - -
30/02:30pm 27.5 NE 10 13 1014.5 - 0.0 - - - - - - -
30/02:00pm 28.2 ENE 11 15 1014.9 - 0.0 - - - - - - -
30/01:30pm 28.3 ENE 13 19 1015.4 - 0.0 - - - - - - -
30/01:00pm 28.9 NNE 9 13 1015.7 - 0.0 - - - - - - -
30/12:30pm 28.7 ENE 5 6 1015.8 - 0.0 - - - - - - -
30/12:00pm 28.2 ENE 4 5 1016.2 - 0.0 - - - - - - -
30/11:30am 26.3 NE 4 6 1016.6 - 0.0 - - - - - - -
30/11:00am 25.7 SE 4 4 1016.9 - 0.0 - - - - - - -
30/10:30am 25.1 SSE 3 5 1017.3 - 0.0 - - - - - - -
30/10:00am 24.8 SSE 6 8 1017.5 - 0.0 - - - - - - -
30/09:30am 24.0 S 8 9 1017.5 - 0.0 - - - - - - -
30/09:00am 23.6 SSE 9 11 1017.4 - 0.0 - - - - - - -
30/08:30am 23.1 SSE 12 14 1017.3 - 0.0 - - - - - - -
30/08:00am 22.4 S 12 15 1017.2 - 0.0 - - - - - - -
30/07:30am 21.9 S 12 14 1016.9 - 0.0 - - - - - - -
30/07:00am 21.4 S 12 15 1016.7 - 0.0 - - - - - - -
30/06:30am 21.1 S 11 14 1016.5 - 0.0 - - - - - - -
30/06:00am 20.8 S 9 12 1016.4 - 0.0 - - - - - - -
30/05:30am 20.7 S 10 12 1016.1 - 0.0 - - - - - - -
30/05:00am 20.9 S 11 12 1015.9 - 0.0 - - - - - - -
30/04:30am 20.8 S 11 13 1015.7 - 0.0 - - - - - - -
30/04:00am 20.9 S 13 15 1015.7 - 0.0 - - - - - - -
30/03:30am 21.1 S 12 14 1015.7 - 0.0 - - - - - - -
30/03:00am 21.2 S 12 14 1016.0 - 0.0 - - - - - - -
30/02:30am 21.1 S 11 13 1016.2 - 0.0 - - - - - - -
30/02:00am 21.4 S 11 13 1016.5 - 0.0 - - - - - - -
30/01:30am 21.4 S 7 8 1016.6 - 0.0 - - - - - - -
30/01:00am 21.6 S 7 8 1016.8 - 0.0 - - - - - - -
30/12:30am 21.5 S 6 7 1017.0 - 0.0 - - - - - - -
30/12:00am 21.8 SSE 6 8 1017.0 - 0.0 - - - - - - -
 
Date/Time
CST
Temp

°C
Wind Pressure Rain
since 9am
mm
Weather Cloud Vis
km
Sea
Height
m
Swell
Dir
 
Speed
knots
Gust
knots
hPa Trend Height
m
Period
s
Dir
29/11:30pm 21.9 SE 6 7 1017.1 - 0.0 - - - - - - -
29/11:00pm 22.0 SE 7 8 1017.3 - 0.0 - - - - - - -
29/10:30pm 21.9 ESE 6 8 1017.3 - 0.0 - - - - - - -
29/10:00pm 21.9 ESE 6 6 1017.3 - 0.0 - - - - - - -
29/09:30pm 21.9 E 5 6 1017.2 - 0.0 - - - - - - -
29/09:00pm 21.9 E 6 7 1017.1 - 0.0 - - - - - - -
29/08:30pm 22.0 E 4 5 1017.1 - 0.0 - - - - - - -
29/08:00pm 22.2 NE 5 6 1016.8 - 0.0 - - - - - - -
29/07:30pm 22.4 NE 5 6 1016.5 - 0.0 - - - - - - -
29/07:00pm 22.6 NNE 5 7 1016.2 - 0.0 - - - - - - -
29/06:30pm 23.0 NNE 8 9 1016.0 - 0.0 - - - - - - -
29/06:00pm 23.7 N 7 8 1015.8 - 0.0 - - - - - - -
29/05:30pm 24.3 NNE 9 13 1015.6 - 0.0 - - - - - - -
29/05:00pm 25.1 NNE 9 12 1015.5 - 0.0 - - - - - - -
29/04:30pm 25.4 NNE 10 14 1015.3 - 0.0 - - - - - - -
29/04:00pm 26.0 NNE 10 14 1015.1 - 0.0 - - - - - - -
29/03:30pm 27.1 NNE 8 11 1015.2 - 0.0 - - - - - - -
29/03:00pm 27.7 ENE 11 14 1015.2 - 0.0 - - - - - - -
29/02:30pm 27.6 ENE 11 13 1015.7 - 0.0 - - - - - - -
29/02:00pm 28.1 E 12 15 1016.1 - 0.0 - - - - - - -
29/01:30pm 27.9 E 10 13 1016.6 - 0.0 - - - - - - -
29/01:00pm 27.6 E 7 8 1016.8 - 0.0 - - - - - - -
29/12:30pm 27.4 ESE 9 11 1017.3 - 0.0 - - - - - - -
29/12:00pm 27.1 ESE 9 11 1017.6 - 0.0 - - - - - - -
29/11:30am 25.8 SE 6 7 1017.8 - 0.0 - - - - - - -
29/11:00am 24.0 SE 4 5 1018.1 - 0.0 - - - - - - -
29/10:30am 24.5 SE 4 5 1018.3 - 0.0 - - - - - - -
29/10:00am 23.6 SE 5 6 1018.6 - 0.0 - - - - - - -
29/09:30am 24.0 SE 5 6 1018.7 - 0.0 - - - - - - -
29/09:00am 23.4 SE 4 5 1018.5 - 0.0 - - - - - - -
29/08:30am 23.1 SE 4 6 1018.3 - 0.0 - - - - - - -
29/08:00am 22.6 SSE 6 7 1018.0 - 0.0 - - - - - - -
29/07:30am 21.7 S 8 9 1017.6 - 0.0 - - - - - - -
29/07:00am 21.2 S 8 9 1017.3 - 0.0 - - - - - - -
29/06:30am 21.2 S 8 9 1017.1 - 0.0 - - - - - - -
29/06:00am 21.3 S 9 11 1017.0 - 0.0 - - - - - - -
29/05:30am 21.0 S 10 11 1016.9 - 0.0 - - - - - - -
29/05:00am 21.0 S 11 13 1016.7 - 0.0 - - - - - - -
29/04:30am 20.9 S 11 14 1016.6 - 0.0 - - - - - - -
29/04:00am 20.4 S 12 15 1016.5 - 0.0 - - - - - - -
29/03:30am 20.5 S 11 14 1016.6 - 0.0 - - - - - - -
29/03:00am 21.0 S 6 7 1016.4 - 0.0 - - - - - - -
29/02:30am 21.0 SSE 5 6 1016.4 - 0.0 - - - - - - -
29/02:00am 20.7 SE 4 5 1016.6 - 0.0 - - - - - - -
29/01:30am 20.8 SE 4 4 1016.9 - 0.0 - - - - - - -

Other Formats:

Comma delimited format used in spreadsheet applications
http://www.bom.gov.au/fwo/IDD60701/IDD60701.94248.axf

JavaScript Object Notation format (JSON) in row-major order
http://www.bom.gov.au/fwo/IDD60701/IDD60701.94248.json